createdAt,value
2016-12-03T00:00:15.059Z,87.69
2016-12-03T00:00:36.779Z,87.59
2016-12-03T00:00:58.499Z,87.21
2016-12-03T00:01:20.226Z,87.32
2016-12-03T00:01:41.980Z,86.95
2016-12-03T00:02:08.469Z,86.58
2016-12-03T00:02:31.201Z,86.47
2016-12-03T00:02:52.918Z,86.18
2016-12-03T00:03:14.650Z,86.21
2016-12-03T00:03:36.385Z,86.21
2016-12-03T00:03:58.108Z,86.08
2016-12-03T00:04:19.835Z,86.05
2016-12-03T00:04:41.572Z,86.32
2016-12-03T00:05:09.059Z,86.70
2016-12-03T00:05:40.361Z,87.00
2016-12-03T00:06:02.103Z,87.10
2016-12-03T00:06:23.835Z,87.09
2016-12-03T00:06:45.569Z,87.29
2016-12-03T00:07:08.293Z,87.42
2016-12-03T00:07:30.011Z,87.79
2016-12-03T00:07:51.735Z,87.51
2016-12-03T00:08:13.457Z,87.48
2016-12-03T00:08:35.178Z,87.40
2016-12-03T00:08:56.897Z,87.67
2016-12-03T00:09:18.757Z,87.80
2016-12-03T00:09:40.466Z,87.51
2016-12-03T00:10:02.189Z,87.59
2016-12-03T00:10:23.908Z,87.51
2016-12-03T00:10:45.623Z,87.13
2016-12-03T00:11:07.333Z,86.80
2016-12-03T00:11:29.085Z,86.47
2016-12-03T00:11:50.800Z,86.24
2016-12-03T00:12:12.515Z,85.95
2016-12-03T00:12:36.643Z,86.14
2016-12-03T00:12:58.363Z,86.25
2016-12-03T00:13:21.085Z,85.94
2016-12-03T00:13:42.801Z,86.37
2016-12-03T00:14:04.524Z,86.45
2016-12-03T00:14:26.260Z,86.59
2016-12-03T00:14:47.993Z,86.77
2016-12-03T00:15:09.712Z,87.11
2016-12-03T00:15:31.444Z,87.28
2016-12-03T00:15:54.151Z,87.43
2016-12-03T00:16:15.878Z,87.65
2016-12-03T00:16:37.591Z,87.36
2016-12-03T00:16:59.308Z,86.84
2016-12-03T00:17:21.027Z,86.83
2016-12-03T00:17:42.748Z,86.87
2016-12-03T00:18:04.480Z,86.93
2016-12-03T00:18:26.189Z,86.72
2016-12-03T00:18:47.920Z,86.79
2016-12-03T00:19:09.639Z,86.51
2016-12-03T00:19:31.353Z,86.50
2016-12-03T00:19:54.156Z,86.39
2016-12-03T00:20:15.871Z,86.42
2016-12-03T00:20:37.587Z,86.49
2016-12-03T00:21:00.305Z,86.72
2016-12-03T00:21:22.019Z,86.82
2016-12-03T00:21:43.762Z,86.97
2016-12-03T00:22:05.467Z,86.69
2016-12-03T00:22:27.200Z,86.50
2016-12-03T00:22:48.928Z,86.52
2016-12-03T00:23:10.657Z,86.76
2016-12-03T00:23:32.389Z,86.66
2016-12-03T00:23:54.122Z,86.42
2016-12-03T00:24:15.853Z,86.32
2016-12-03T00:24:38.597Z,86.59
2016-12-03T00:25:00.329Z,86.79
2016-12-03T00:25:22.048Z,86.65
2016-12-03T00:25:43.758Z,86.48
2016-12-03T00:26:05.517Z,86.59
2016-12-03T00:26:27.231Z,86.72
2016-12-03T00:26:48.965Z,86.79
2016-12-03T00:27:10.677Z,86.87
2016-12-03T00:27:32.391Z,86.65
2016-12-03T00:27:54.100Z,86.64
2016-12-03T00:28:15.822Z,86.79
2016-12-03T00:28:37.533Z,86.83
2016-12-03T00:28:59.255Z,86.85
2016-12-03T00:29:20.969Z,86.88
2016-12-03T00:29:42.690Z,86.72
2016-12-03T00:30:04.419Z,86.69
2016-12-03T00:30:26.141Z,86.55
2016-12-03T00:30:47.898Z,86.56
2016-12-03T00:31:14.390Z,86.47
2016-12-03T00:31:36.101Z,86.58
2016-12-03T00:31:57.819Z,86.90
2016-12-03T00:32:19.535Z,87.13
2016-12-03T00:32:41.282Z,87.21
2016-12-03T00:33:02.993Z,86.92
2016-12-03T00:33:24.714Z,86.82
2016-12-03T00:33:46.431Z,86.77
2016-12-03T00:34:08.183Z,86.83
2016-12-03T00:34:29.898Z,86.87
2016-12-03T00:34:51.616Z,86.63
2016-12-03T00:35:13.340Z,86.35
2016-12-03T00:35:35.047Z,86.25
2016-12-03T00:35:56.766Z,86.36
2016-12-03T00:36:19.482Z,86.48
2016-12-03T00:36:41.199Z,86.59
2016-12-03T00:37:02.967Z,86.72
2016-12-03T00:37:24.680Z,86.89
2016-12-03T00:37:46.415Z,86.93
2016-12-03T00:38:08.137Z,87.10
2016-12-03T00:38:34.625Z,87.44
2016-12-03T00:38:56.345Z,87.25
2016-12-03T00:39:18.089Z,87.19
2016-12-03T00:39:39.818Z,87.45
2016-12-03T00:40:01.532Z,87.30
2016-12-03T00:40:23.272Z,87.57
2016-12-03T00:40:49.753Z,87.60
2016-12-03T00:41:11.476Z,87.78
2016-12-03T00:41:33.198Z,87.42
2016-12-03T00:41:54.904Z,87.34
2016-12-03T00:42:16.619Z,87.11
2016-12-03T00:42:38.331Z,87.18
2016-12-03T00:43:00.061Z,87.31
2016-12-03T00:43:26.541Z,87.47
2016-12-03T00:43:48.262Z,87.41
2016-12-03T00:44:36.477Z,87.69
2016-12-03T00:44:58.192Z,87.72
2016-12-03T00:45:19.911Z,87.80
2016-12-03T00:45:41.626Z,87.67
2016-12-03T00:46:03.424Z,87.59
2016-12-03T00:46:29.917Z,87.56
2016-12-03T00:46:51.630Z,87.44
2016-12-03T00:47:13.368Z,87.30
2016-12-03T00:47:35.084Z,86.97
2016-12-03T00:47:56.791Z,86.87
2016-12-03T00:48:18.499Z,86.90
2016-12-03T00:48:40.215Z,86.74
2016-12-03T00:49:01.935Z,86.60
2016-12-03T00:49:23.653Z,86.44
2016-12-03T00:49:45.363Z,86.63
2016-12-03T00:50:07.086Z,86.77
2016-12-03T00:50:28.806Z,86.85
2016-12-03T00:50:50.519Z,86.70
2016-12-03T00:51:12.231Z,86.54
2016-12-03T00:51:33.951Z,86.46
2016-12-03T00:51:55.669Z,86.68
2016-12-03T00:52:17.400Z,86.87
2016-12-03T00:52:39.128Z,87.03
2016-12-03T00:53:00.834Z,86.91
2016-12-03T00:53:22.547Z,86.86
2016-12-03T00:53:44.271Z,87.02
2016-12-03T00:54:06.001Z,86.88
2016-12-03T00:54:27.716Z,86.70
2016-12-03T00:54:49.443Z,86.55
2016-12-03T00:55:11.162Z,86.54
2016-12-03T00:55:32.893Z,86.71
2016-12-03T00:55:54.608Z,86.30
2016-12-03T00:56:16.324Z,86.35
2016-12-03T00:56:38.050Z,86.62
2016-12-03T00:56:59.771Z,86.82
2016-12-03T00:57:21.496Z,86.53
2016-12-03T00:57:43.213Z,86.20
2016-12-03T00:58:04.930Z,86.31
2016-12-03T00:58:26.654Z,86.46
2016-12-03T00:58:48.370Z,86.66
2016-12-03T00:59:10.109Z,86.39
2016-12-03T00:59:31.826Z,86.36
2016-12-03T00:59:53.545Z,86.55
2016-12-03T01:00:15.263Z,86.85
2016-12-03T01:00:41.782Z,86.86
2016-12-03T01:01:03.498Z,86.74
2016-12-03T01:01:25.219Z,86.78
2016-12-03T01:01:46.944Z,86.66
2016-12-03T01:02:08.666Z,86.56
2016-12-03T01:02:30.375Z,86.75
2016-12-03T01:02:52.101Z,86.88
2016-12-03T01:03:16.344Z,87.06
2016-12-03T01:03:38.068Z,86.95
2016-12-03T01:03:59.784Z,86.84
2016-12-03T01:04:21.500Z,86.65
2016-12-03T01:04:43.213Z,86.76
2016-12-03T01:05:04.941Z,87.00
2016-12-03T01:05:26.655Z,87.06
2016-12-03T01:05:53.164Z,86.82
2016-12-03T01:06:14.875Z,86.73
2016-12-03T01:06:36.603Z,86.93
2016-12-03T01:06:58.325Z,86.72
2016-12-03T01:07:20.050Z,86.66
2016-12-03T01:07:41.776Z,86.89
2016-12-03T01:08:03.495Z,86.92
2016-12-03T01:08:25.206Z,86.94
2016-12-03T01:08:46.928Z,87.01
2016-12-03T01:09:08.640Z,86.89
2016-12-03T01:09:30.378Z,86.71
2016-12-03T01:09:52.101Z,86.84
2016-12-03T01:10:13.818Z,86.62
2016-12-03T01:10:35.535Z,86.58
2016-12-03T01:10:57.256Z,86.22
2016-12-03T01:11:18.970Z,86.31
2016-12-03T01:11:40.685Z,86.12
2016-12-03T01:12:02.403Z,85.99
2016-12-03T01:12:24.123Z,85.65
2016-12-03T01:12:45.836Z,85.49
2016-12-03T01:13:07.558Z,85.53
2016-12-03T01:13:29.272Z,85.51
2016-12-03T01:13:50.994Z,85.95
2016-12-03T01:14:12.732Z,86.13
2016-12-03T01:14:34.468Z,86.32
2016-12-03T01:14:56.182Z,86.49
2016-12-03T01:15:17.897Z,86.38
2016-12-03T01:15:39.694Z,86.44
2016-12-03T01:16:01.411Z,86.32
2016-12-03T01:16:24.155Z,85.98
2016-12-03T01:16:45.882Z,85.93
2016-12-03T01:17:08.593Z,85.93
2016-12-03T01:17:30.317Z,86.13
2016-12-03T01:17:52.038Z,86.43
2016-12-03T01:18:13.757Z,86.60
2016-12-03T01:18:36.466Z,86.66
2016-12-03T01:18:58.205Z,86.59
2016-12-03T01:19:19.924Z,86.74
2016-12-03T01:19:42.646Z,86.84
2016-12-03T01:20:04.365Z,86.80
2016-12-03T01:20:26.083Z,86.85
2016-12-03T01:20:47.800Z,86.46
2016-12-03T01:21:09.539Z,86.29
2016-12-03T01:21:31.251Z,86.41
2016-12-03T01:21:52.980Z,86.56
2016-12-03T01:22:14.693Z,86.63
2016-12-03T01:22:36.415Z,86.72
2016-12-03T01:22:58.135Z,86.74
2016-12-03T01:23:19.852Z,86.79
2016-12-03T01:23:41.572Z,86.76
2016-12-03T01:24:03.283Z,86.76
2016-12-03T01:24:25.008Z,86.80
2016-12-03T01:24:46.722Z,86.45
2016-12-03T01:25:08.440Z,86.43
2016-12-03T01:25:30.161Z,86.15
2016-12-03T01:25:51.898Z,86.18
2016-12-03T01:26:13.610Z,86.05
2016-12-03T01:26:35.329Z,86.02
2016-12-03T01:26:57.053Z,85.99
2016-12-03T01:27:18.761Z,86.06
2016-12-03T01:27:40.469Z,86.15
2016-12-03T01:28:06.962Z,86.19
2016-12-03T01:28:28.674Z,86.08
2016-12-03T01:28:50.404Z,85.75
2016-12-03T01:29:12.122Z,85.57
2016-12-03T01:29:33.853Z,85.53
2016-12-03T01:29:55.574Z,85.75
2016-12-03T01:30:17.293Z,86.15
2016-12-03T01:30:39.010Z,86.02
2016-12-03T01:31:00.726Z,86.28
2016-12-03T01:31:22.443Z,86.26
2016-12-03T01:31:44.172Z,86.42
2016-12-03T01:32:05.898Z,86.15
2016-12-03T01:32:27.616Z,86.16
2016-12-03T01:32:49.336Z,86.30
2016-12-03T01:33:11.056Z,86.11
2016-12-03T01:33:32.780Z,86.12
2016-12-03T01:33:54.511Z,86.30
2016-12-03T01:34:16.229Z,86.40
2016-12-03T01:34:37.940Z,86.40
2016-12-03T01:34:59.671Z,86.09
2016-12-03T01:35:21.388Z,86.01
2016-12-03T01:35:43.108Z,85.91
2016-12-03T01:36:04.841Z,86.09
2016-12-03T01:36:26.555Z,86.19
2016-12-03T01:36:48.272Z,86.28
2016-12-03T01:37:09.991Z,86.66
2016-12-03T01:37:31.707Z,86.41
2016-12-03T01:37:53.428Z,86.49
2016-12-03T01:38:15.175Z,86.39
2016-12-03T01:38:36.905Z,86.43
2016-12-03T01:38:58.615Z,86.43
2016-12-03T01:39:20.340Z,86.40
2016-12-03T01:39:42.046Z,86.29
2016-12-03T01:40:03.768Z,86.01
2016-12-03T01:40:25.480Z,86.08
2016-12-03T01:40:47.198Z,86.14
2016-12-03T01:41:08.914Z,85.75
2016-12-03T01:41:30.641Z,85.48
2016-12-03T01:41:52.375Z,85.56
2016-12-03T01:42:14.097Z,85.59
2016-12-03T01:42:35.818Z,85.47
2016-12-03T01:43:02.307Z,85.82
2016-12-03T01:43:24.037Z,85.76
2016-12-03T01:43:45.749Z,85.43
2016-12-03T01:44:07.477Z,85.55
2016-12-03T01:44:30.204Z,85.75
2016-12-03T01:44:51.911Z,85.66
2016-12-03T01:45:13.631Z,85.58
2016-12-03T01:45:35.687Z,85.51
2016-12-03T01:45:57.407Z,85.43
2016-12-03T01:46:19.127Z,85.30
2016-12-03T01:46:40.842Z,85.69
2016-12-03T01:47:02.558Z,85.73
2016-12-03T01:47:24.285Z,85.87
2016-12-03T01:47:46.001Z,86.14
2016-12-03T01:48:07.709Z,85.99
2016-12-03T01:48:29.423Z,85.73
2016-12-03T01:48:51.167Z,85.60
2016-12-03T01:49:12.910Z,85.66
2016-12-03T01:49:34.623Z,85.28
2016-12-03T01:49:56.344Z,85.30
2016-12-03T01:50:18.055Z,85.52
2016-12-03T01:50:39.775Z,85.74
2016-12-03T01:51:01.507Z,85.75
2016-12-03T01:51:23.231Z,85.41
2016-12-03T01:51:44.961Z,85.58
2016-12-03T01:52:06.687Z,85.46
2016-12-03T01:52:28.404Z,85.24
2016-12-03T01:52:51.122Z,85.33
2016-12-03T01:53:15.822Z,85.53
2016-12-03T01:53:37.570Z,85.69
2016-12-03T01:53:59.281Z,85.78
2016-12-03T01:54:21.004Z,85.75
2016-12-03T01:54:42.728Z,85.58
2016-12-03T01:55:04.442Z,85.67
2016-12-03T01:55:27.160Z,85.92
2016-12-03T01:55:48.879Z,86.02
2016-12-03T01:56:10.603Z,85.60
2016-12-03T01:56:32.314Z,85.47
2016-12-03T01:56:54.032Z,85.69
2016-12-03T01:57:15.755Z,85.97
2016-12-03T01:57:37.478Z,86.32
2016-12-03T01:57:59.211Z,86.62
2016-12-03T01:58:20.928Z,86.48
2016-12-03T01:58:42.640Z,86.58
2016-12-03T01:59:04.365Z,86.68
2016-12-03T01:59:26.085Z,86.74
2016-12-03T01:59:47.871Z,86.50
2016-12-03T02:00:09.586Z,86.49
2016-12-03T02:00:32.307Z,85.99
2016-12-03T02:00:54.082Z,85.55
2016-12-03T02:01:15.806Z,85.41
2016-12-03T02:01:38.523Z,85.27
2016-12-03T02:02:00.237Z,85.49
2016-12-03T02:02:21.947Z,85.40
2016-12-03T02:02:43.687Z,85.12
2016-12-03T02:03:05.401Z,85.31
2016-12-03T02:03:27.120Z,85.07
2016-12-03T02:03:48.872Z,85.11
2016-12-03T02:04:10.599Z,85.35
2016-12-03T02:04:32.308Z,85.13
2016-12-03T02:04:54.034Z,85.10
2016-12-03T02:05:16.743Z,84.79
2016-12-03T02:05:38.461Z,85.07
2016-12-03T02:06:01.198Z,85.29
2016-12-03T02:06:22.917Z,85.52
2016-12-03T02:06:49.402Z,85.50
2016-12-03T02:07:11.123Z,85.49
2016-12-03T02:07:32.837Z,85.48
2016-12-03T02:07:54.555Z,85.60
2016-12-03T02:08:16.282Z,85.69
2016-12-03T02:08:38.017Z,85.28
2016-12-03T02:09:04.506Z,85.32
2016-12-03T02:09:26.221Z,85.21
2016-12-03T02:09:47.940Z,85.41
2016-12-03T02:10:09.656Z,85.20
2016-12-03T02:10:31.386Z,85.14
2016-12-03T02:10:53.115Z,85.21
2016-12-03T02:11:14.834Z,85.35
2016-12-03T02:11:36.553Z,85.66
2016-12-03T02:11:58.283Z,85.35
2016-12-03T02:12:20.000Z,84.96
2016-12-03T02:12:41.704Z,84.97
2016-12-03T02:13:03.413Z,85.35
2016-12-03T02:13:25.131Z,85.54
2016-12-03T02:13:46.849Z,85.50
2016-12-03T02:14:08.569Z,85.27
2016-12-03T02:14:30.365Z,85.11
2016-12-03T02:14:52.076Z,85.30
2016-12-03T02:15:18.566Z,85.37
2016-12-03T02:15:40.285Z,85.49
2016-12-03T02:16:01.995Z,85.59
2016-12-03T02:16:23.714Z,85.36
2016-12-03T02:16:45.450Z,85.28
2016-12-03T02:17:07.159Z,85.34
2016-12-03T02:17:28.892Z,85.41
2016-12-03T02:17:50.607Z,85.61
2016-12-03T02:18:12.344Z,85.81
2016-12-03T02:18:34.065Z,85.92
2016-12-03T02:18:55.775Z,86.02
2016-12-03T02:19:17.494Z,85.92
2016-12-03T02:19:39.226Z,85.86
2016-12-03T02:20:00.936Z,85.78
2016-12-03T02:20:22.642Z,85.42
2016-12-03T02:20:44.361Z,85.42
2016-12-03T02:21:06.095Z,85.57
2016-12-03T02:21:27.808Z,85.62
2016-12-03T02:21:49.526Z,85.73
2016-12-03T02:22:11.242Z,85.93
2016-12-03T02:22:32.958Z,85.80
2016-12-03T02:22:54.669Z,85.67
2016-12-03T02:23:16.395Z,85.29
2016-12-03T02:23:38.176Z,85.43
2016-12-03T02:23:59.894Z,85.34
2016-12-03T02:24:21.608Z,85.23
2016-12-03T02:24:43.316Z,85.30
2016-12-03T02:25:05.042Z,85.37
2016-12-03T02:25:26.886Z,85.58
2016-12-03T02:25:48.592Z,85.83
2016-12-03T02:26:12.959Z,85.91
2016-12-03T02:26:39.456Z,86.16
2016-12-03T02:27:01.166Z,86.36
2016-12-03T02:27:22.894Z,86.24
2016-12-03T02:27:44.608Z,86.31
2016-12-03T02:28:06.330Z,85.98
2016-12-03T02:28:28.041Z,85.63
2016-12-03T02:28:49.914Z,85.31
2016-12-03T02:29:11.652Z,85.23
2016-12-03T02:29:33.364Z,85.42
2016-12-03T02:29:55.089Z,85.12
2016-12-03T02:30:16.806Z,85.23
2016-12-03T02:30:38.508Z,85.61
2016-12-03T02:31:00.222Z,85.72
2016-12-03T02:31:21.947Z,85.90
2016-12-03T02:31:43.658Z,86.35
2016-12-03T02:32:05.376Z,86.41
2016-12-03T02:32:27.125Z,86.19
2016-12-03T02:32:48.847Z,86.28
2016-12-03T02:33:10.587Z,85.93
2016-12-03T02:33:32.304Z,85.96
2016-12-03T02:33:54.011Z,85.68
2016-12-03T02:34:15.728Z,85.53
2016-12-03T02:34:37.440Z,85.68
2016-12-03T02:34:59.160Z,85.81
2016-12-03T02:35:20.880Z,85.86
2016-12-03T02:35:42.608Z,85.94
2016-12-03T02:36:04.333Z,85.90
2016-12-03T02:36:26.053Z,86.03
2016-12-03T02:36:47.771Z,86.23
2016-12-03T02:37:09.480Z,86.29
2016-12-03T02:37:31.195Z,86.41
2016-12-03T02:37:52.917Z,86.43
2016-12-03T02:38:14.733Z,85.94
2016-12-03T02:38:36.451Z,85.58
2016-12-03T02:38:58.194Z,85.24
2016-12-03T02:39:19.911Z,85.26
2016-12-03T02:39:41.631Z,85.61
2016-12-03T02:40:03.347Z,85.93
2016-12-03T02:40:25.064Z,86.08
2016-12-03T02:40:46.783Z,86.03
2016-12-03T02:41:08.509Z,86.25
2016-12-03T02:41:30.224Z,86.46
2016-12-03T02:41:51.952Z,86.45
2016-12-03T02:42:13.692Z,86.09
2016-12-03T02:42:35.405Z,85.97
2016-12-03T02:42:57.239Z,86.29
2016-12-03T02:43:18.953Z,86.36
2016-12-03T02:43:40.665Z,86.31
2016-12-03T02:44:02.381Z,86.58
2016-12-03T02:44:24.092Z,86.70
2016-12-03T02:44:45.812Z,86.74
2016-12-03T02:45:07.525Z,86.37
2016-12-03T02:45:29.259Z,86.25
2016-12-03T02:45:50.980Z,86.30
2016-12-03T02:46:12.698Z,86.35
2016-12-03T02:46:34.435Z,86.35
2016-12-03T02:46:56.155Z,86.48
2016-12-03T02:47:17.859Z,86.33
2016-12-03T02:47:39.573Z,85.90
2016-12-03T02:48:01.283Z,85.46
2016-12-03T02:48:23.228Z,85.36
2016-12-03T02:48:44.937Z,85.57
2016-12-03T02:49:06.654Z,85.78
2016-12-03T02:49:28.368Z,85.91
2016-12-03T02:49:50.119Z,86.12
2016-12-03T02:50:11.842Z,86.44
2016-12-03T02:50:33.557Z,86.57
2016-12-03T02:50:55.273Z,86.61
2016-12-03T02:51:16.990Z,86.75
2016-12-03T02:51:38.711Z,86.57
2016-12-03T02:52:00.430Z,86.38
2016-12-03T02:52:22.142Z,86.32
2016-12-03T02:52:43.862Z,86.06
2016-12-03T02:53:05.583Z,86.08
2016-12-03T02:53:27.298Z,85.91
2016-12-03T02:53:53.795Z,86.09
2016-12-03T02:54:15.524Z,86.14
2016-12-03T02:54:37.257Z,85.96
2016-12-03T02:54:58.969Z,86.12
2016-12-03T02:55:20.684Z,86.33
2016-12-03T02:55:42.401Z,86.62
2016-12-03T02:56:04.120Z,86.77
2016-12-03T02:56:25.842Z,86.75
2016-12-03T02:56:47.564Z,86.95
2016-12-03T02:57:09.271Z,86.82
2016-12-03T02:57:30.991Z,86.77
2016-12-03T02:57:52.699Z,86.83
2016-12-03T02:58:14.425Z,86.87
2016-12-03T02:58:36.154Z,86.94
2016-12-03T02:58:57.857Z,86.99
2016-12-03T02:59:19.579Z,86.94
2016-12-03T02:59:41.287Z,86.64
2016-12-03T03:00:03.010Z,86.41
2016-12-03T03:00:24.726Z,86.07
2016-12-03T03:00:46.445Z,86.03
2016-12-03T03:01:08.166Z,85.95
2016-12-03T03:01:29.893Z,86.17
2016-12-03T03:01:51.613Z,86.10
2016-12-03T03:02:13.330Z,85.69
2016-12-03T03:02:35.070Z,85.60
2016-12-03T03:02:56.784Z,85.42
2016-12-03T03:03:18.540Z,85.52
2016-12-03T03:03:40.261Z,85.30
2016-12-03T03:04:01.980Z,84.85
2016-12-03T03:04:23.694Z,85.05
2016-12-03T03:04:45.411Z,85.31
2016-12-03T03:05:07.145Z,85.43
2016-12-03T03:05:28.856Z,85.36
2016-12-03T03:05:55.341Z,85.13
2016-12-03T03:06:17.063Z,84.93
2016-12-03T03:06:38.779Z,84.68
2016-12-03T03:07:00.500Z,84.68
2016-12-03T03:07:25.029Z,84.83
2016-12-03T03:07:46.756Z,85.13
2016-12-03T03:08:08.536Z,85.21
2016-12-03T03:08:30.257Z,84.91
2016-12-03T03:08:52.000Z,84.68
2016-12-03T03:09:13.711Z,84.50
2016-12-03T03:09:35.430Z,84.54
2016-12-03T03:09:57.154Z,84.84
2016-12-03T03:10:18.874Z,85.08
2016-12-03T03:10:40.594Z,85.15
2016-12-03T03:11:02.324Z,84.90
2016-12-03T03:11:24.048Z,85.00
2016-12-03T03:11:45.761Z,84.92
2016-12-03T03:12:07.470Z,85.18
2016-12-03T03:12:29.193Z,85.20
2016-12-03T03:12:50.918Z,85.47
2016-12-03T03:13:12.637Z,85.40
2016-12-03T03:13:34.346Z,85.53
2016-12-03T03:13:56.068Z,85.63
2016-12-03T03:14:17.778Z,85.72
2016-12-03T03:14:39.516Z,85.96
2016-12-03T03:15:01.244Z,86.13
2016-12-03T03:15:22.977Z,85.77
2016-12-03T03:15:44.703Z,85.49
2016-12-03T03:16:06.429Z,85.41
2016-12-03T03:16:29.148Z,85.60
2016-12-03T03:16:50.877Z,85.78
2016-12-03T03:17:12.629Z,85.97
2016-12-03T03:17:34.345Z,85.88
2016-12-03T03:17:56.057Z,85.45
2016-12-03T03:18:17.777Z,85.59
2016-12-03T03:18:39.491Z,85.72
2016-12-03T03:19:01.205Z,85.66
2016-12-03T03:19:23.044Z,85.52
2016-12-03T03:19:44.766Z,85.14
2016-12-03T03:20:06.480Z,85.14
2016-12-03T03:20:28.199Z,85.22
2016-12-03T03:20:49.913Z,85.54
2016-12-03T03:21:11.622Z,85.67
2016-12-03T03:21:33.341Z,85.94
2016-12-03T03:21:55.075Z,85.96
2016-12-03T03:22:16.789Z,85.89
2016-12-03T03:22:38.500Z,85.93
2016-12-03T03:23:00.215Z,86.03
2016-12-03T03:23:21.940Z,85.85
2016-12-03T03:23:44.658Z,86.00
2016-12-03T03:24:06.370Z,86.20
2016-12-03T03:24:28.099Z,86.36
2016-12-03T03:24:49.819Z,86.42
2016-12-03T03:25:11.540Z,86.19
2016-12-03T03:25:33.248Z,86.15
2016-12-03T03:25:54.972Z,86.42
2016-12-03T03:26:16.685Z,86.59
2016-12-03T03:26:38.406Z,86.79
2016-12-03T03:27:00.120Z,86.86
2016-12-03T03:27:21.842Z,86.75
2016-12-03T03:27:43.565Z,86.15
2016-12-03T03:28:05.289Z,85.71
2016-12-03T03:28:27.000Z,85.49
2016-12-03T03:28:53.496Z,85.59
2016-12-03T03:29:15.211Z,85.68
2016-12-03T03:29:36.938Z,85.88
2016-12-03T03:29:58.792Z,85.52
2016-12-03T03:30:25.287Z,85.25
2016-12-03T03:30:51.775Z,85.20
2016-12-03T03:31:13.498Z,85.12
2016-12-03T03:31:35.208Z,85.04
2016-12-03T03:31:56.928Z,85.02
2016-12-03T03:32:18.778Z,85.20
2016-12-03T03:32:40.432Z,85.07
2016-12-03T03:33:12.687Z,85.47
2016-12-03T03:33:39.194Z,85.97
2016-12-03T03:34:00.923Z,86.13
2016-12-03T03:34:22.696Z,86.12
2016-12-03T03:34:49.193Z,86.24
2016-12-03T03:35:10.950Z,86.29
2016-12-03T03:35:32.667Z,86.25
2016-12-03T03:35:54.385Z,86.19
2016-12-03T03:36:20.868Z,86.15
2016-12-03T03:36:43.584Z,86.34
2016-12-03T03:37:10.075Z,86.50
2016-12-03T03:37:31.795Z,86.49
2016-12-03T03:37:53.527Z,86.69
2016-12-03T03:38:15.507Z,86.70
2016-12-03T03:38:37.313Z,86.81
2016-12-03T03:38:59.030Z,86.92
2016-12-03T03:39:20.738Z,86.41
2016-12-03T03:39:42.458Z,85.80
2016-12-03T03:40:04.184Z,85.42
2016-12-03T03:40:25.915Z,85.33
2016-12-03T03:40:47.618Z,85.49
2016-12-03T03:41:09.338Z,85.75
2016-12-03T03:41:31.045Z,85.96
2016-12-03T03:41:52.766Z,85.97
2016-12-03T03:42:14.481Z,86.23
2016-12-03T03:42:36.197Z,86.54
2016-12-03T03:42:57.924Z,86.62
2016-12-03T03:43:19.634Z,86.52
2016-12-03T03:43:41.350Z,86.56
2016-12-03T03:44:03.072Z,86.85
2016-12-03T03:44:24.795Z,86.57
2016-12-03T03:44:46.507Z,85.95
2016-12-03T03:45:08.216Z,85.64
2016-12-03T03:45:29.936Z,85.55
2016-12-03T03:45:51.677Z,85.51
2016-12-03T03:46:13.388Z,85.79
2016-12-03T03:46:35.109Z,85.89
2016-12-03T03:46:56.822Z,86.20
2016-12-03T03:47:18.529Z,86.49
2016-12-03T03:47:40.250Z,86.46
2016-12-03T03:48:01.976Z,86.36
2016-12-03T03:48:23.689Z,86.48
2016-12-03T03:48:45.410Z,86.49
2016-12-03T03:49:07.125Z,86.57
2016-12-03T03:49:28.849Z,86.32
2016-12-03T03:49:50.575Z,86.37
2016-12-03T03:50:12.291Z,86.39
2016-12-03T03:50:34.006Z,86.61
2016-12-03T03:50:55.721Z,86.70
2016-12-03T03:51:17.461Z,86.40
2016-12-03T03:51:39.174Z,86.34
2016-12-03T03:52:00.888Z,86.49
2016-12-03T03:52:22.610Z,86.64
2016-12-03T03:52:44.344Z,86.73
2016-12-03T03:53:06.053Z,86.73
2016-12-03T03:53:27.807Z,86.86
2016-12-03T03:53:49.555Z,86.77
2016-12-03T03:54:11.268Z,86.69
2016-12-03T03:54:32.996Z,86.52
2016-12-03T03:54:54.708Z,86.59
2016-12-03T03:55:16.424Z,86.37
2016-12-03T03:55:38.135Z,85.85
2016-12-03T03:55:59.853Z,85.26
2016-12-03T03:56:21.568Z,84.87
2016-12-03T03:56:43.276Z,84.62
2016-12-03T03:57:04.998Z,84.79
2016-12-03T03:57:26.715Z,85.04
2016-12-03T03:57:48.422Z,84.82
2016-12-03T03:58:10.127Z,84.54
2016-12-03T03:58:31.833Z,84.35
2016-12-03T03:58:53.544Z,84.44
2016-12-03T03:59:15.272Z,84.67
2016-12-03T03:59:36.989Z,85.07
2016-12-03T03:59:58.686Z,85.37
2016-12-03T04:00:20.398Z,85.55
2016-12-03T04:00:42.124Z,85.70
2016-12-03T04:01:03.827Z,85.66
2016-12-03T04:01:30.313Z,85.24
2016-12-03T04:01:52.045Z,85.39
2016-12-03T04:02:13.761Z,85.68
2016-12-03T04:02:35.479Z,86.09
2016-12-03T04:02:58.193Z,86.19
2016-12-03T04:03:19.906Z,86.36
2016-12-03T04:03:41.620Z,86.66
2016-12-03T04:04:03.460Z,86.84
2016-12-03T04:04:29.885Z,87.05
2016-12-03T04:04:51.602Z,87.24
2016-12-03T04:05:13.319Z,87.36
2016-12-03T04:05:35.043Z,87.34
2016-12-03T04:05:56.753Z,87.40
2016-12-03T04:06:18.468Z,87.38
2016-12-03T04:06:40.185Z,87.45
2016-12-03T04:07:01.907Z,87.42
2016-12-03T04:07:23.628Z,87.19
2016-12-03T04:07:45.331Z,87.15
2016-12-03T04:08:07.044Z,87.31
2016-12-03T04:08:28.756Z,87.47
2016-12-03T04:08:50.481Z,87.56
2016-12-03T04:09:12.192Z,87.63
2016-12-03T04:09:33.917Z,87.69
2016-12-03T04:09:55.635Z,87.75
2016-12-03T04:10:17.343Z,87.65
2016-12-03T04:10:39.058Z,87.58
2016-12-03T04:11:00.787Z,87.39
2016-12-03T04:11:22.499Z,87.20
2016-12-03T04:11:44.226Z,86.86
2016-12-03T04:12:05.968Z,86.75
2016-12-03T04:12:27.705Z,86.12
2016-12-03T04:12:49.409Z,85.60
2016-12-03T04:13:11.127Z,85.25
2016-12-03T04:13:32.844Z,85.50
2016-12-03T04:13:54.560Z,85.72
2016-12-03T04:14:16.273Z,85.98
2016-12-03T04:14:37.994Z,86.29
2016-12-03T04:14:59.703Z,86.62
2016-12-03T04:15:21.421Z,86.75
2016-12-03T04:15:43.135Z,86.84
2016-12-03T04:16:04.864Z,86.80
2016-12-03T04:16:26.574Z,86.63
2016-12-03T04:16:48.296Z,86.66
2016-12-03T04:17:11.014Z,86.61
2016-12-03T04:17:32.723Z,86.51
2016-12-03T04:17:54.450Z,86.58
2016-12-03T04:18:16.174Z,86.63
2016-12-03T04:18:38.884Z,86.30
2016-12-03T04:19:00.601Z,86.54
2016-12-03T04:19:22.316Z,86.49
2016-12-03T04:19:48.811Z,86.25
2016-12-03T04:20:10.531Z,85.83
2016-12-03T04:20:33.364Z,85.74
2016-12-03T04:20:55.077Z,85.52
2016-12-03T04:21:21.580Z,85.10
2016-12-03T04:21:43.303Z,84.89
2016-12-03T04:22:05.016Z,84.87
2016-12-03T04:22:26.744Z,85.00
2016-12-03T04:22:48.463Z,85.11
2016-12-03T04:23:10.179Z,84.85
2016-12-03T04:23:31.887Z,84.84
2016-12-03T04:23:53.600Z,84.72
2016-12-03T04:24:51.162Z,84.08
2016-12-03T04:25:18.161Z,84.09
2016-12-03T04:25:39.879Z,84.53
2016-12-03T04:26:01.587Z,84.76
2016-12-03T04:26:23.303Z,85.13
2016-12-03T04:26:45.153Z,85.25
2016-12-03T04:27:06.880Z,85.46
2016-12-03T04:27:28.593Z,85.53
2016-12-03T04:27:50.305Z,85.83
2016-12-03T04:28:12.037Z,86.19
2016-12-03T04:28:33.753Z,86.38
2016-12-03T04:28:55.488Z,86.60
2016-12-03T04:29:17.201Z,86.95
2016-12-03T04:29:38.933Z,87.16
2016-12-03T04:30:00.647Z,87.08
2016-12-03T04:30:22.365Z,87.02
2016-12-03T04:30:44.085Z,87.16
2016-12-03T04:31:05.795Z,87.30
2016-12-03T04:31:27.545Z,87.27
2016-12-03T04:31:49.262Z,86.89
2016-12-03T04:32:10.983Z,86.82
2016-12-03T04:32:37.467Z,87.03
2016-12-03T04:32:59.172Z,87.32
2016-12-03T04:33:20.890Z,87.60
2016-12-03T04:33:45.479Z,87.86
2016-12-03T04:34:07.185Z,88.02
2016-12-03T04:34:28.902Z,88.13
2016-12-03T04:34:52.826Z,88.24
2016-12-03T04:35:14.548Z,88.29
2016-12-03T04:35:36.261Z,88.39
2016-12-03T04:35:57.982Z,88.39
2016-12-03T04:36:19.707Z,88.43
2016-12-03T04:36:41.427Z,88.46
2016-12-03T04:37:03.153Z,88.37
2016-12-03T04:37:24.871Z,88.04
2016-12-03T04:37:46.590Z,87.45
2016-12-03T04:38:08.321Z,87.24
2016-12-03T04:38:30.046Z,87.45
2016-12-03T04:38:51.763Z,87.50
2016-12-03T04:39:13.468Z,87.39
2016-12-03T04:39:35.185Z,87.15
2016-12-03T04:39:56.904Z,86.98
2016-12-03T04:40:18.615Z,86.99
2016-12-03T04:40:40.363Z,86.93
2016-12-03T04:41:02.046Z,86.73
2016-12-03T04:41:23.762Z,86.76
2016-12-03T04:41:45.472Z,86.94
2016-12-03T04:42:07.203Z,87.00
2016-12-03T04:42:28.925Z,86.60
2016-12-03T04:42:50.666Z,86.41
2016-12-03T04:43:12.386Z,86.63
2016-12-03T04:43:34.100Z,86.95
2016-12-03T04:43:55.814Z,87.05
2016-12-03T04:44:17.552Z,86.99